Time;durP1;ratioP1;P1;durP2;ratioP2;P2;SDS_P1;SDS_P2;PMS_P1;PMS_P2;Temp;Humidity;BMP_temperature;BMP_pressure;BME280_temperature;BME280_humidity;BME280_pressure;Samples;Min_cycle;Max_cycle;Signal;HPM_P1;HPM_P2
2021/12/02 00:01:10;;;;;;;4.47;1.85;;;6.10;99.90;;;;;;4973687;28;20390;-84
2021/12/02 00:03:36;;;;;;;5.95;1.80;;;6.00;99.90;;;;;;4974471;28;20472;-80
2021/12/02 00:06:06;;;;;;;6.30;2.00;;;5.90;99.90;;;;;;4974198;28;20390;-87
2021/12/02 00:08:31;;;;;;;4.07;1.48;;;5.90;99.90;;;;;;4974714;28;20445;-82
2021/12/02 00:10:58;;;;;;;5.05;1.45;;;5.80;99.90;;;;;;4961551;28;21390;-81
2021/12/02 00:13:27;;;;;;;5.00;1.60;;;5.80;99.90;;;;;;4977637;28;20502;-83
2021/12/02 00:16:06;;;;;;;7.50;1.67;;;5.90;99.90;;;;;;4974784;28;20390;-84
2021/12/02 00:21:21;;;;;;;3.63;1.20;;;5.40;99.90;;;;;;4974008;28;20387;-83
2021/12/02 00:24:01;;;;;;;3.28;1.10;;;4.80;99.90;;;;;;4956357;28;20426;-81
2021/12/02 00:26:28;;;;;;;2.30;1.10;;;4.30;99.90;;;;;;4974061;28;20378;-82
2021/12/02 00:28:59;;;;;;;2.30;1.08;;;4.10;99.90;;;;;;4973811;28;20406;-83
2021/12/02 00:31:29;;;;;;;1.77;0.80;;;4.00;99.90;;;;;;4971383;28;20410;-82
2021/12/02 00:33:57;;;;;;;1.60;1.00;;;3.90;99.90;;;;;;4956655;28;20441;-84
2021/12/02 00:36:27;;;;;;;1.83;1.10;;;3.90;99.90;;;;;;4955446;28;20428;-82
2021/12/02 00:38:54;;;;;;;3.33;0.98;;;3.90;99.90;;;;;;4961125;28;20964;-85
2021/12/02 00:41:24;;;;;;;2.38;1.05;;;3.90;99.90;;;;;;4973472;28;20405;-82
2021/12/02 00:43:51;;;;;;;2.20;0.90;;;3.90;99.90;;;;;;4973139;28;20406;-82
2021/12/02 00:46:20;;;;;;;2.80;0.90;;;4.00;99.90;;;;;;4972745;28;20691;-83
2021/12/02 00:48:47;;;;;;;1.10;0.60;;;3.90;99.90;;;;;;4973538;28;20383;-83
2021/12/02 00:51:13;;;;;;;2.63;0.70;;;4.00;99.90;;;;;;4955545;28;20423;-84
2021/12/02 00:53:44;;;;;;;1.48;0.82;;;4.00;99.90;;;;;;4972913;28;20402;-83
2021/12/02 00:56:13;;;;;;;1.73;0.70;;;3.90;99.90;;;;;;4955621;28;20910;-81
2021/12/02 00:58:38;;;;;;;1.33;0.60;;;3.90;99.90;;;;;;4973536;28;20382;-83
2021/12/02 01:01:05;;;;;;;1.48;0.70;;;3.90;99.90;;;;;;4973156;28;20892;-81
2021/12/02 01:03:35;;;;;;;3.73;0.90;;;4.00;99.90;;;;;;4973049;28;20382;-83
2021/12/02 01:06:03;;;;;;;2.15;0.85;;;4.00;99.90;;;;;;4956020;28;20431;-84
2021/12/02 01:08:30;;;;;;;1.30;0.70;;;4.00;99.90;;;;;;4971419;28;20386;-81
2021/12/02 01:10:56;;;;;;;2.10;0.70;;;4.00;99.90;;;;;;4955578;28;20411;-82
2021/12/02 01:13:22;;;;;;;1.03;0.60;;;4.00;99.90;;;;;;4955258;28;20449;-83
2021/12/02 01:15:48;;;;;;;2.13;0.77;;;4.00;99.90;;;;;;4971727;28;20386;-83
2021/12/02 01:18:14;;;;;;;4.82;0.80;;;4.00;99.90;;;;;;4968137;28;20398;-82
2021/12/02 01:20:41;;;;;;;1.60;0.80;;;4.00;99.90;;;;;;4955122;28;20394;-82
2021/12/02 01:23:07;;;;;;;1.73;0.75;;;4.00;99.90;;;;;;4954235;28;20865;-84
2021/12/02 01:25:34;;;;;;;1.95;0.75;;;3.90;99.90;;;;;;4955019;28;20398;-80
2021/12/02 01:28:00;;;;;;;1.55;0.70;;;4.00;99.90;;;;;;4972150;28;20399;-83
2021/12/02 01:30:31;;;;;;;2.65;0.80;;;4.00;99.90;;;;;;4954124;28;20425;-85
2021/12/02 01:33:05;;;;;;;2.10;0.70;;;4.00;99.90;;;;;;4971152;28;20409;-84
2021/12/02 01:35:32;;;;;;;2.65;0.85;;;3.90;99.90;;;;;;4958024;28;20390;-84
2021/12/02 01:37:58;;;;;;;2.90;0.98;;;4.00;99.90;;;;;;4971846;28;20472;-82
2021/12/02 01:40:25;;;;;;;2.30;1.10;;;4.00;99.90;;;;;;4955096;28;20486;-81
2021/12/02 01:42:57;;;;;;;2.90;0.88;;;4.00;99.90;;;;;;4972222;28;20489;-85
2021/12/02 01:45:26;;;;;;;2.05;0.80;;;3.90;99.90;;;;;;4954275;28;20394;-83
2021/12/02 01:47:54;;;;;;;4.20;1.00;;;3.90;99.90;;;;;;4972250;28;20415;-83
2021/12/02 01:50:22;;;;;;;1.83;0.88;;;3.90;99.90;;;;;;4971618;28;20422;-83
2021/12/02 01:52:54;;;;;;;3.13;0.90;;;3.90;99.90;;;;;;4955466;28;20425;-82
2021/12/02 01:55:20;;;;;;;1.67;1.00;;;3.90;99.90;;;;;;4953966;28;20762;-83
2021/12/02 01:58:04;;;;;;;1.88;0.80;;;3.90;99.90;;;;;;4972022;28;20391;-82
2021/12/02 02:00:44;;;;;;;2.30;0.77;;;3.90;99.90;;;;;;4954059;28;20417;-83
2021/12/02 02:03:11;;;;;;;1.98;0.73;;;3.80;99.90;;;;;;4971540;28;20452;-83
2021/12/02 02:05:37;;;;;;;2.20;1.02;;;3.80;99.90;;;;;;4953950;28;20398;-83
2021/12/02 02:08:15;;;;;;;2.50;0.90;;;3.80;99.90;;;;;;4953340;28;20414;-85
2021/12/02 02:10:41;;;;;;;3.28;1.00;;;3.70;99.90;;;;;;4971452;28;20881;-82
2021/12/02 02:13:09;;;;;;;3.65;0.90;;;3.70;99.90;;;;;;4953729;28;20395;-84
2021/12/02 02:15:44;;;;;;;2.28;0.90;;;3.70;99.90;;;;;;4971279;28;20402;-80
2021/12/02 02:20:43;;;;;;;2.27;1.00;;;3.70;99.90;;;;;;4971298;28;20394;-83
2021/12/02 02:23:12;;;;;;;2.45;1.30;;;3.70;99.90;;;;;;4953202;28;20394;-84
2021/12/02 02:25:39;;;;;;;2.45;1.10;;;3.70;99.90;;;;;;4971623;28;20513;-83
2021/12/02 02:28:05;;;;;;;4.32;1.33;;;3.70;99.90;;;;;;4953456;28;20891;-82
2021/12/02 02:30:30;;;;;;;2.88;1.27;;;3.80;99.90;;;;;;4954367;28;20410;-81
2021/12/02 02:32:56;;;;;;;4.20;1.40;;;3.80;99.90;;;;;;4970639;28;20401;-84
2021/12/02 02:35:22;;;;;;;4.32;1.45;;;3.80;99.90;;;;;;4970443;28;20409;-84
2021/12/02 02:37:48;;;;;;;5.67;1.53;;;3.80;99.90;;;;;;4970905;28;20401;-85
2021/12/02 02:40:15;;;;;;;4.77;1.70;;;3.80;99.90;;;;;;4953237;28;21056;-83
2021/12/02 02:42:45;;;;;;;3.53;1.30;;;3.70;99.90;;;;;;4953166;28;20457;-82
2021/12/02 02:45:11;;;;;;;4.00;1.50;;;3.80;99.90;;;;;;4953502;28;20402;-84
2021/12/02 02:47:39;;;;;;;5.68;1.67;;;3.80;99.90;;;;;;4971059;28;20747;-82
2021/12/02 02:50:05;;;;;;;4.93;1.60;;;3.80;99.90;;;;;;4970306;28;20915;-80
2021/12/02 02:52:33;;;;;;;5.57;1.77;;;3.70;99.90;;;;;;4970414;28;20402;-85
2021/12/02 02:54:58;;;;;;;3.33;1.42;;;3.70;99.90;;;;;;4970636;28;20453;-82
2021/12/02 02:57:28;;;;;;;5.95;1.60;;;3.80;99.90;;;;;;4953437;28;20798;-84
2021/12/02 03:00:03;;;;;;;4.83;1.60;;;3.80;99.90;;;;;;4952837;28;20409;-80
2021/12/02 03:02:36;;;;;;;2.65;1.33;;;3.80;99.90;;;;;;4951762;28;20959;-84
2021/12/02 03:07:43;;;;;;;3.67;1.30;;;3.80;99.90;;;;;;4970134;28;20465;-84
2021/12/02 03:10:15;;;;;;;6.05;1.88;;;3.70;99.90;;;;;;4971244;28;20478;-81
2021/12/02 03:18:17;;;;;;;4.80;1.58;;;3.70;99.90;;;;;;4971541;28;20410;-84
2021/12/02 03:20:42;;;;;;;4.40;1.35;;;3.70;99.90;;;;;;4969678;28;20418;-85
2021/12/02 03:23:08;;;;;;;4.10;1.40;;;3.80;99.90;;;;;;4952345;28;20398;-83
2021/12/02 03:25:33;;;;;;;3.97;1.40;;;3.70;99.90;;;;;;4969830;28;20473;-85
2021/12/02 03:27:59;;;;;;;5.80;1.50;;;3.80;99.90;;;;;;4970407;28;20460;-83
2021/12/02 03:30:25;;;;;;;3.93;1.57;;;3.80;99.90;;;;;;4952846;28;20457;-84
2021/12/02 03:32:50;;;;;;;4.32;1.35;;;3.80;99.90;;;;;;4952196;28;20430;-81
2021/12/02 03:35:16;;;;;;;4.95;1.65;;;3.70;99.90;;;;;;4969136;28;20395;-83
2021/12/02 03:37:42;;;;;;;4.23;1.60;;;3.70;99.90;;;;;;4970167;28;20485;-80
2021/12/02 03:40:08;;;;;;;4.07;1.10;;;3.70;99.90;;;;;;4953112;28;20391;-84
2021/12/02 03:42:33;;;;;;;4.87;1.60;;;3.70;99.90;;;;;;4968619;28;20971;-83
2021/12/02 03:44:59;;;;;;;4.00;1.10;;;3.70;99.90;;;;;;4970428;28;20395;-84
2021/12/02 03:47:25;;;;;;;2.57;1.20;;;3.70;99.90;;;;;;4971688;28;20900;-85
2021/12/02 03:49:50;;;;;;;3.08;1.17;;;3.80;99.90;;;;;;4970062;28;20401;-81
2021/12/02 03:52:16;;;;;;;4.25;1.40;;;3.80;99.90;;;;;;4969937;28;20410;-84
2021/12/02 03:54:41;;;;;;;2.93;1.07;;;3.70;99.90;;;;;;4969638;28;20405;-84
2021/12/02 03:57:07;;;;;;;2.97;1.40;;;3.70;99.90;;;;;;4969622;28;20493;-85
2021/12/02 03:59:33;;;;;;;2.72;1.20;;;3.70;99.90;;;;;;4969065;28;20394;-86
2021/12/02 04:02:00;;;;;;;3.20;1.48;;;3.70;99.90;;;;;;4969481;28;20466;-83
2021/12/02 04:04:25;;;;;;;4.60;1.42;;;3.60;99.90;;;;;;4952611;28;20855;-82
2021/12/02 04:06:51;;;;;;;3.17;1.15;;;3.60;99.90;;;;;;4952009;28;20513;-83
2021/12/02 04:09:20;;;;;;;4.60;1.33;;;3.50;99.90;;;;;;4952606;28;20441;-85
2021/12/02 04:14:45;;;;;;;3.95;1.60;;;3.40;99.90;;;;;;4942441;29;20487;-84
2021/12/02 04:17:13;;;;;;;5.20;1.42;;;3.30;99.90;;;;;;4951143;29;20392;-83
2021/12/02 04:19:38;;;;;;;4.55;1.50;;;3.30;99.90;;;;;;4947565;28;20474;-85
2021/12/02 04:22:05;;;;;;;3.42;1.40;;;3.30;99.90;;;;;;4969459;28;20826;-80
2021/12/02 04:24:31;;;;;;;3.67;1.67;;;3.20;99.90;;;;;;4969892;28;20471;-85
2021/12/02 04:26:57;;;;;;;3.05;1.20;;;3.20;99.90;;;;;;4970209;28;20395;-85
2021/12/02 04:29:24;;;;;;;3.95;1.30;;;3.30;99.90;;;;;;4969608;28;20506;-81
2021/12/02 04:31:51;;;;;;;3.03;1.30;;;3.20;99.90;;;;;;4969483;28;20422;-82
2021/12/02 04:34:17;;;;;;;4.38;1.40;;;3.20;99.90;;;;;;4952728;28;20448;-82
2021/12/02 04:36:43;;;;;;;4.33;1.57;;;3.20;99.90;;;;;;4969814;28;20390;-81
2021/12/02 04:39:09;;;;;;;2.63;1.02;;;3.20;99.90;;;;;;4973745;28;20410;-82
2021/12/02 04:41:35;;;;;;;3.28;1.20;;;3.10;99.90;;;;;;4959127;28;20413;-83
2021/12/02 04:44:01;;;;;;;2.80;1.30;;;3.10;99.90;;;;;;4973165;28;20384;-81
2021/12/02 04:46:27;;;;;;;4.03;1.40;;;3.10;99.90;;;;;;4972303;28;20386;-81
2021/12/02 04:48:52;;;;;;;1.93;1.10;;;3.00;99.90;;;;;;4955612;28;20387;-83
2021/12/02 04:51:18;;;;;;;2.50;1.40;;;3.00;99.90;;;;;;4972575;28;20415;-84
2021/12/02 04:53:44;;;;;;;3.63;1.20;;;3.00;99.90;;;;;;4972706;28;20390;-84
2021/12/02 04:56:09;;;;;;;4.18;1.33;;;3.00;99.90;;;;;;4955616;28;20403;-83
2021/12/02 04:58:35;;;;;;;4.13;1.20;;;3.00;99.90;;;;;;4955720;28;20382;-82
2021/12/02 05:01:01;;;;;;;4.73;1.23;;;3.00;99.90;;;;;;4972313;28;20757;-84
2021/12/02 05:03:26;;;;;;;2.57;1.20;;;2.90;99.90;;;;;;4972258;28;20467;-84
2021/12/02 05:05:52;;;;;;;3.05;1.27;;;2.90;99.90;;;;;;4973026;28;20390;-84
2021/12/02 05:08:17;;;;;;;2.17;1.10;;;2.90;99.90;;;;;;4972290;28;20936;-87
2021/12/02 05:10:43;;;;;;;2.50;1.17;;;2.90;99.90;;;;;;4972250;28;20881;-84
2021/12/02 05:13:09;;;;;;;2.63;1.17;;;2.90;99.90;;;;;;4955477;28;20478;-83
2021/12/02 05:15:35;;;;;;;3.10;1.15;;;2.90;99.90;;;;;;4972621;28;20449;-82
2021/12/02 05:18:00;;;;;;;2.10;1.10;;;2.80;99.90;;;;;;4972920;28;20453;-82
2021/12/02 05:20:26;;;;;;;4.67;1.50;;;2.80;99.90;;;;;;4972332;28;20391;-82
2021/12/02 05:22:51;;;;;;;4.40;1.02;;;2.80;99.90;;;;;;4971730;28;20395;-82
2021/12/02 05:25:17;;;;;;;3.90;1.20;;;2.90;99.90;;;;;;4972438;28;20402;-82
2021/12/02 05:27:43;;;;;;;2.88;1.00;;;2.90;99.90;;;;;;4972288;28;20460;-80
2021/12/02 05:30:09;;;;;;;3.40;1.30;;;2.90;99.90;;;;;;4972294;28;20923;-82
2021/12/02 05:32:35;;;;;;;2.60;1.10;;;2.90;99.90;;;;;;4954788;28;21078;-81
2021/12/02 05:35:01;;;;;;;1.58;1.00;;;2.90;99.90;;;;;;4972416;28;20881;-81
2021/12/02 05:37:27;;;;;;;3.20;1.13;;;2.80;99.90;;;;;;4972957;28;20394;-84
2021/12/02 05:39:53;;;;;;;1.73;0.90;;;2.80;99.90;;;;;;4972038;28;21261;-81
2021/12/02 05:42:19;;;;;;;3.87;1.20;;;2.80;99.90;;;;;;4971545;28;20398;-85
2021/12/02 05:44:45;;;;;;;2.30;0.90;;;2.70;99.90;;;;;;4971905;28;20385;-83
2021/12/02 05:47:11;;;;;;;2.50;1.10;;;2.80;99.90;;;;;;4972274;28;20410;-81
2021/12/02 05:49:37;;;;;;;2.15;1.02;;;2.80;99.90;;;;;;4953619;28;20426;-86
2021/12/02 05:52:03;;;;;;;3.20;1.03;;;2.80;99.90;;;;;;4970919;28;20917;-82
2021/12/02 05:54:29;;;;;;;4.67;1.20;;;2.90;99.90;;;;;;4972058;28;20401;-81
2021/12/02 05:56:54;;;;;;;3.37;1.20;;;2.90;99.90;;;;;;4955093;28;20386;-84
2021/12/02 05:59:20;;;;;;;3.47;1.25;;;2.90;99.90;;;;;;4971884;28;20394;-82
2021/12/02 06:01:45;;;;;;;3.33;1.15;;;2.80;99.90;;;;;;4971598;28;20410;-83
2021/12/02 06:04:12;;;;;;;3.13;1.15;;;2.80;99.90;;;;;;4971895;28;20383;-83
2021/12/02 06:06:38;;;;;;;3.97;1.38;;;2.80;99.90;;;;;;4971340;28;20394;-84
2021/12/02 06:09:05;;;;;;;2.17;1.10;;;2.70;99.90;;;;;;4955071;28;20878;-82
2021/12/02 06:11:31;;;;;;;3.83;1.25;;;2.70;99.90;;;;;;4970846;28;20460;-84
2021/12/02 06:13:56;;;;;;;3.30;1.20;;;2.70;99.90;;;;;;4954635;28;20386;-83
2021/12/02 06:16:22;;;;;;;3.75;1.33;;;2.70;99.90;;;;;;4971518;28;20379;-84
2021/12/02 06:18:48;;;;;;;2.60;1.33;;;2.60;99.90;;;;;;4972002;28;20378;-82
2021/12/02 06:21:14;;;;;;;3.10;1.40;;;2.60;99.90;;;;;;4954854;28;20789;-80
2021/12/02 06:23:41;;;;;;;2.58;1.50;;;2.60;99.90;;;;;;4954632;28;20539;-84
2021/12/02 06:26:07;;;;;;;3.90;1.40;;;2.50;99.90;;;;;;4953668;28;20422;-82
2021/12/02 06:28:33;;;;;;;2.70;1.30;;;2.50;99.90;;;;;;4953511;28;20405;-86
2021/12/02 06:31:01;;;;;;;2.70;1.50;;;2.50;99.90;;;;;;4953455;28;20414;-83
2021/12/02 06:33:28;;;;;;;4.53;1.40;;;2.40;99.90;;;;;;4970058;28;20390;-84
2021/12/02 06:35:54;;;;;;;3.15;1.40;;;2.40;99.90;;;;;;4970562;28;20393;-85
2021/12/02 06:38:19;;;;;;;2.40;1.50;;;2.30;99.90;;;;;;4971838;28;20768;-85
2021/12/02 06:40:45;;;;;;;4.20;1.40;;;2.30;99.90;;;;;;4971622;28;20414;-83
2021/12/02 06:43:14;;;;;;;4.22;1.40;;;2.30;99.90;;;;;;4953029;28;20458;-85
2021/12/02 06:45:40;;;;;;;3.30;1.50;;;2.30;99.90;;;;;;4953925;28;20405;-82
2021/12/02 06:48:05;;;;;;;3.40;1.60;;;2.30;99.90;;;;;;4970981;28;20387;-85
2021/12/02 06:50:34;;;;;;;3.83;1.40;;;2.20;99.90;;;;;;4971060;28;20390;-82
2021/12/02 06:52:59;;;;;;;3.63;1.67;;;2.30;99.90;;;;;;4952809;28;20422;-84
2021/12/02 06:55:25;;;;;;;1.90;1.30;;;2.40;99.90;;;;;;4954057;28;20457;-83
2021/12/02 06:57:51;;;;;;;3.42;1.42;;;2.40;99.90;;;;;;4970096;28;20955;-81
2021/12/02 07:00:20;;;;;;;4.72;1.52;;;2.30;99.90;;;;;;4953382;28;20407;-85
2021/12/02 07:02:47;;;;;;;2.80;1.45;;;2.30;99.90;;;;;;4970559;28;20402;-85
2021/12/02 07:05:14;;;;;;;3.63;1.38;;;2.40;99.90;;;;;;4953430;28;20909;-84
2021/12/02 07:07:40;;;;;;;3.92;1.50;;;2.30;99.90;;;;;;4952952;28;20406;-81
2021/12/02 07:10:23;;;;;;;3.38;1.45;;;2.40;99.90;;;;;;4970768;28;20398;-84
2021/12/02 07:12:50;;;;;;;3.33;1.40;;;2.40;99.90;;;;;;4953328;28;20480;-82
2021/12/02 07:15:18;;;;;;;4.35;1.60;;;2.40;99.90;;;;;;4970811;28;20398;-83
2021/12/02 07:17:55;;;;;;;2.95;1.50;;;2.40;99.90;;;;;;4969971;28;20505;-81
2021/12/02 07:20:21;;;;;;;2.90;1.60;;;2.40;99.90;;;;;;4953056;28;20461;-83
2021/12/02 07:22:46;;;;;;;3.57;1.97;;;2.30;99.90;;;;;;4971241;28;20412;-79
2021/12/02 07:25:12;;;;;;;2.10;1.40;;;2.40;99.90;;;;;;4953050;28;20925;-81
2021/12/02 07:27:38;;;;;;;3.60;1.67;;;2.50;99.90;;;;;;4969945;28;20497;-81
2021/12/02 07:30:05;;;;;;;3.00;1.65;;;2.50;99.90;;;;;;4970418;28;20825;-86
2021/12/02 07:32:37;;;;;;;4.68;1.52;;;2.60;99.90;;;;;;4969784;28;20533;-82
2021/12/02 07:35:07;;;;;;;3.42;1.73;;;2.70;99.90;;;;;;4953171;28;20478;-84
2021/12/02 07:37:34;;;;;;;2.20;1.50;;;2.80;99.90;;;;;;4953498;28;20386;-82
2021/12/02 07:40:00;;;;;;;5.18;1.65;;;2.70;99.90;;;;;;4952749;28;20387;-82
2021/12/02 07:42:26;;;;;;;3.38;1.38;;;2.80;99.90;;;;;;4970414;28;20406;-83
2021/12/02 07:44:52;;;;;;;3.45;1.50;;;2.80;99.90;;;;;;4970582;28;20370;-84
2021/12/02 07:47:19;;;;;;;5.47;1.80;;;2.80;99.90;;;;;;4969297;28;20742;-81
2021/12/02 07:49:48;;;;;;;4.47;1.52;;;2.90;99.90;;;;;;4952520;28;20406;-84
2021/12/02 07:52:17;;;;;;;2.47;1.33;;;2.90;99.90;;;;;;4970149;28;20529;-83
2021/12/02 07:54:45;;;;;;;3.07;1.50;;;2.90;99.90;;;;;;4969616;28;20403;-85
2021/12/02 07:57:13;;;;;;;4.07;1.73;;;3.00;99.90;;;;;;4968500;28;20928;-81
2021/12/02 07:59:40;;;;;;;2.75;1.20;;;3.00;99.90;;;;;;4970039;28;20398;-87
2021/12/02 08:02:11;;;;;;;3.53;1.30;;;3.00;99.90;;;;;;4952131;28;20395;-85
2021/12/02 08:04:36;;;;;;;3.03;1.10;;;3.00;99.90;;;;;;4970555;28;20406;-83
2021/12/02 08:07:02;;;;;;;4.50;1.40;;;3.00;99.90;;;;;;4952965;28;20425;-81
2021/12/02 08:09:28;;;;;;;3.33;1.53;;;3.00;99.90;;;;;;4970432;28;20417;-84
2021/12/02 08:11:54;;;;;;;2.77;1.50;;;2.90;99.90;;;;;;4953268;28;20573;-83
2021/12/02 08:14:19;;;;;;;3.17;1.40;;;2.90;99.90;;;;;;4956657;28;20402;-83
2021/12/02 08:16:45;;;;;;;3.60;1.73;;;2.90;99.90;;;;;;4973367;28;21031;-86
2021/12/02 08:19:12;;;;;;;4.17;1.63;;;3.00;99.90;;;;;;4974288;28;20414;-84
2021/12/02 08:21:38;;;;;;;3.30;2.00;;;3.10;99.90;;;;;;4973549;28;20477;-82
2021/12/02 08:24:04;;;;;;;5.25;1.90;;;3.10;99.90;;;;;;4956857;28;20402;-81
2021/12/02 08:26:31;;;;;;;3.97;2.00;;;3.00;99.90;;;;;;4974392;28;20406;-85
2021/12/02 08:28:56;;;;;;;5.03;1.80;;;3.00;99.90;;;;;;4973404;28;20481;-84
2021/12/02 08:31:24;;;;;;;3.70;1.70;;;3.00;99.90;;;;;;4973234;28;20509;-86
2021/12/02 08:33:52;;;;;;;3.97;1.80;;;3.00;99.90;;;;;;4973379;28;20386;-85
2021/12/02 08:36:21;;;;;;;4.07;1.43;;;2.90;99.90;;;;;;4956288;28;20398;-84
2021/12/02 08:38:48;;;;;;;3.90;1.80;;;2.90;99.90;;;;;;4973496;28;20398;-85
2021/12/02 08:41:18;;;;;;;3.95;1.48;;;2.80;99.90;;;;;;4955350;28;20394;-83
2021/12/02 08:43:44;;;;;;;4.27;1.53;;;2.80;99.90;;;;;;4973382;28;20404;-86
2021/12/02 08:46:10;;;;;;;4.57;1.77;;;2.90;99.90;;;;;;4972651;28;20401;-84
2021/12/02 08:48:35;;;;;;;3.35;1.42;;;2.90;99.90;;;;;;4955774;28;20908;-82
2021/12/02 08:51:01;;;;;;;3.95;1.38;;;2.90;99.90;;;;;;4973211;28;20414;-83
2021/12/02 08:53:27;;;;;;;3.33;1.60;;;2.80;99.90;;;;;;4972514;28;20998;-83
2021/12/02 08:55:52;;;;;;;3.20;1.73;;;2.80;99.90;;;;;;4972712;28;20399;-83
2021/12/02 08:58:18;;;;;;;2.97;1.60;;;2.90;99.90;;;;;;4955838;28;20395;-83
2021/12/02 09:00:44;;;;;;;4.30;1.80;;;3.00;99.90;;;;;;4955140;28;20402;-81
2021/12/02 09:03:14;;;;;;;4.10;1.70;;;2.90;99.90;;;;;;4971879;28;20768;-82
2021/12/02 09:05:40;;;;;;;2.97;1.30;;;2.80;99.90;;;;;;4972927;28;20394;-83
2021/12/02 09:08:06;;;;;;;4.03;1.70;;;2.80;99.90;;;;;;4973039;28;20371;-80
2021/12/02 09:10:33;;;;;;;4.43;1.67;;;2.90;99.90;;;;;;4972889;28;20424;-85
2021/12/02 09:13:03;;;;;;;2.78;1.50;;;2.90;99.90;;;;;;4968147;28;20773;-84
2021/12/02 09:15:29;;;;;;;5.10;2.25;;;3.00;99.90;;;;;;4971031;28;20465;-84
2021/12/02 09:17:55;;;;;;;3.77;1.60;;;3.10;99.90;;;;;;4972358;28;20804;-82
2021/12/02 09:20:20;;;;;;;3.43;1.60;;;3.10;99.90;;;;;;4972446;28;20382;-79
2021/12/02 09:22:47;;;;;;;4.07;1.90;;;3.20;99.90;;;;;;4972704;28;20389;-86
2021/12/02 09:25:16;;;;;;;3.40;1.52;;;3.20;99.90;;;;;;4955402;28;20383;-85
2021/12/02 09:27:41;;;;;;;5.00;1.80;;;3.20;99.90;;;;;;4954523;28;20410;-80
2021/12/02 09:30:08;;;;;;;4.70;1.80;;;3.20;99.90;;;;;;4955044;28;20737;-84
2021/12/02 09:32:35;;;;;;;4.20;1.90;;;3.20;99.90;;;;;;4955053;28;20414;-82
2021/12/02 09:35:02;;;;;;;3.58;2.13;;;3.20;99.90;;;;;;4972285;28;20433;-84
2021/12/02 09:37:28;;;;;;;7.53;2.10;;;3.20;99.90;;;;;;4954677;28;20410;-86
2021/12/02 09:39:54;;;;;;;4.60;1.90;;;3.30;99.90;;;;;;4972690;28;20470;-84
2021/12/02 09:42:21;;;;;;;6.70;2.05;;;3.30;99.90;;;;;;4972224;28;20483;-87
2021/12/02 09:44:48;;;;;;;4.53;1.70;;;3.30;99.90;;;;;;4955579;28;20406;-82
2021/12/02 09:47:16;;;;;;;4.07;1.70;;;3.30;99.90;;;;;;4954700;28;20407;-84
2021/12/02 09:49:42;;;;;;;6.25;2.10;;;3.30;99.90;;;;;;4971591;28;20461;-85
2021/12/02 09:52:11;;;;;;;4.40;1.80;;;3.40;99.90;;;;;;4971229;28;20596;-85
2021/12/02 09:54:40;;;;;;;3.58;1.70;;;3.50;99.90;;;;;;4954654;28;20820;-81
2021/12/02 10:02:10;;;;;;;5.13;1.90;;;3.40;99.90;;;;;;4973195;28;20409;-80
2021/12/02 10:04:39;;;;;;;4.50;2.03;;;3.50;99.90;;;;;;4963699;28;20435;-79
2021/12/02 10:07:22;;;;;;;6.13;2.08;;;3.50;99.90;;;;;;4954592;29;20475;-80
2021/12/02 10:12:38;;;;;;;4.07;1.58;;;3.60;99.90;;;;;;4953908;29;20424;-81
2021/12/02 10:15:11;;;;;;;4.05;1.77;;;3.60;99.90;;;;;;4959103;28;20440;-81
2021/12/02 10:17:43;;;;;;;4.97;1.70;;;3.60;99.90;;;;;;4943960;28;20460;-81
2021/12/02 10:20:38;;;;;;;6.22;1.60;;;3.60;99.90;;;;;;4946371;28;20402;-82
2021/12/02 10:23:25;;;;;;;4.55;1.70;;;3.60;99.90;;;;;;4958815;28;20475;-82
2021/12/02 10:25:58;;;;;;;3.13;1.50;;;3.60;99.90;;;;;;4960049;28;20478;-80
2021/12/02 10:28:26;;;;;;;3.97;1.92;;;3.60;99.90;;;;;;4963029;28;20404;-81
2021/12/02 10:30:55;;;;;;;3.17;1.55;;;3.70;99.90;;;;;;4960816;28;20519;-80
2021/12/02 10:33:36;;;;;;;3.15;1.48;;;3.50;99.90;;;;;;4946051;28;20394;-82
2021/12/02 10:36:08;;;;;;;8.32;2.30;;;3.60;99.90;;;;;;4955884;28;20399;-81
2021/12/02 10:38:44;;;;;;;3.50;1.50;;;3.50;99.90;;;;;;4944078;28;20885;-82
2021/12/02 10:41:22;;;;;;;3.72;1.52;;;3.70;99.90;;;;;;4945021;28;20861;-81
2021/12/02 10:44:25;;;;;;;5.45;1.80;;;3.60;99.90;;;;;;4944627;28;20980;-82
2021/12/02 10:47:14;;;;;;;4.80;1.80;;;3.70;99.90;;;;;;4913092;28;20400;-82
2021/12/02 10:49:58;;;;;;;6.18;1.88;;;3.80;99.90;;;;;;4952677;28;20977;-81
2021/12/02 10:52:30;;;;;;;3.65;1.55;;;3.80;99.90;;;;;;4947068;28;20504;-80
2021/12/02 10:55:10;;;;;;;5.50;1.80;;;3.90;99.90;;;;;;4959574;28;20432;-80
2021/12/02 10:57:54;;;;;;;3.65;1.67;;;3.90;99.90;;;;;;4951842;28;20414;-80
2021/12/02 11:00:46;;;;;;;4.33;1.63;;;4.00;99.90;;;;;;4968976;28;20396;-83
2021/12/02 11:03:14;;;;;;;5.50;1.75;;;4.00;99.90;;;;;;4948929;28;20561;-83
2021/12/02 11:05:46;;;;;;;4.80;1.85;;;4.10;99.90;;;;;;4941035;28;20411;-82
2021/12/02 11:08:13;;;;;;;4.68;1.40;;;4.30;99.90;;;;;;4961736;28;20477;-81
2021/12/02 11:10:41;;;;;;;2.87;1.40;;;4.30;99.90;;;;;;4941142;29;20771;-82
2021/12/02 11:13:08;;;;;;;3.75;1.30;;;4.40;99.90;;;;;;4957535;28;20896;-82
2021/12/02 11:15:37;;;;;;;5.38;1.30;;;4.30;99.90;;;;;;4954883;28;20408;-81
2021/12/02 11:18:09;;;;;;;4.07;1.70;;;4.40;99.90;;;;;;4940106;28;20388;-82
2021/12/02 11:20:39;;;;;;;3.75;1.60;;;4.30;99.90;;;;;;4929460;28;20394;-81
2021/12/02 11:23:08;;;;;;;3.17;1.50;;;4.40;99.90;;;;;;4958855;28;20390;-81
2021/12/02 11:25:36;;;;;;;2.65;1.30;;;4.30;99.90;;;;;;4943597;28;20392;-82
2021/12/02 11:28:08;;;;;;;4.75;1.42;;;4.30;99.90;;;;;;4943020;28;20391;-83
2021/12/02 11:30:36;;;;;;;3.28;1.40;;;4.20;99.90;;;;;;4973179;28;20414;-82
2021/12/02 11:33:06;;;;;;;4.13;1.23;;;4.30;99.90;;;;;;4960259;28;20416;-82
2021/12/02 11:35:40;;;;;;;2.33;1.10;;;4.20;99.90;;;;;;4957626;28;20830;-83
2021/12/02 11:38:09;;;;;;;3.83;1.38;;;4.30;99.90;;;;;;4936899;29;20407;-82
2021/12/02 11:40:41;;;;;;;4.93;1.65;;;4.20;99.90;;;;;;4951999;28;20925;-83
2021/12/02 11:43:12;;;;;;;3.15;1.60;;;4.20;99.90;;;;;;4938328;29;20380;-81
2021/12/02 11:45:46;;;;;;;4.53;1.55;;;4.30;99.90;;;;;;4952500;28;20391;-83
2021/12/02 11:48:15;;;;;;;3.50;1.48;;;4.20;99.90;;;;;;4938352;29;20399;-84
2021/12/02 11:50:42;;;;;;;3.45;1.33;;;4.10;99.90;;;;;;4938357;29;20396;-82
2021/12/02 11:53:07;;;;;;;4.60;1.50;;;4.20;99.90;;;;;;4956094;29;20483;-82
2021/12/02 11:55:38;;;;;;;3.17;1.30;;;4.20;99.90;;;;;;4944966;28;20499;-82
2021/12/02 11:58:04;;;;;;;3.97;1.65;;;4.20;99.90;;;;;;4951035;28;21397;-82
2021/12/02 12:00:31;;;;;;;3.53;1.30;;;4.20;99.90;;;;;;4966698;28;20459;-83
2021/12/02 12:03:03;;;;;;;3.90;1.30;;;4.20;99.90;;;;;;4952489;29;20396;-81
2021/12/02 12:05:38;;;;;;;4.28;1.25;;;4.20;99.90;;;;;;4951259;28;20459;-82
2021/12/02 12:08:05;;;;;;;3.75;1.30;;;4.20;99.90;;;;;;4964238;28;20889;-82
2021/12/02 12:10:39;;;;;;;3.50;1.20;;;4.30;99.90;;;;;;4953862;29;20380;-83
2021/12/02 12:13:14;;;;;;;6.38;1.83;;;4.30;99.90;;;;;;4953338;28;20425;-82
2021/12/02 12:15:53;;;;;;;3.63;1.50;;;4.20;99.90;;;;;;4960395;28;20416;-83
2021/12/02 12:18:39;;;;;;;2.83;1.30;;;4.20;99.90;;;;;;4950515;28;20404;-82
2021/12/02 12:21:12;;;;;;;5.75;1.60;;;4.10;99.90;;;;;;4960273;28;20901;-81
2021/12/02 12:24:00;;;;;;;4.28;1.23;;;4.10;99.90;;;;;;4968156;28;21688;-81
2021/12/02 12:26:30;;;;;;;4.57;1.70;;;4.20;99.90;;;;;;4951096;29;20392;-83
2021/12/02 12:29:06;;;;;;;4.20;1.42;;;4.10;99.90;;;;;;4955024;29;20400;-82
2021/12/02 12:31:34;;;;;;;3.40;1.30;;;4.20;99.90;;;;;;4967457;28;20462;-83
2021/12/02 12:34:01;;;;;;;2.45;1.10;;;4.20;99.90;;;;;;4952520;29;20404;-81
2021/12/02 12:36:37;;;;;;;3.33;1.10;;;4.20;99.90;;;;;;4963654;28;20439;-82
2021/12/02 12:39:33;;;;;;;6.40;1.40;;;4.10;99.90;;;;;;4952557;29;20392;-82
2021/12/02 12:42:15;;;;;;;4.55;1.48;;;4.20;99.90;;;;;;4936012;28;20409;-81
2021/12/02 12:44:51;;;;;;;4.07;1.50;;;4.10;99.90;;;;;;4953585;29;20439;-83
2021/12/02 12:47:18;;;;;;;1.80;1.30;;;4.10;99.90;;;;;;4952244;29;20376;-84
2021/12/02 12:49:47;;;;;;;3.17;1.45;;;4.10;99.90;;;;;;4954340;29;20471;-83
2021/12/02 12:52:17;;;;;;;3.45;1.27;;;4.10;99.90;;;;;;4951611;29;20506;-81
2021/12/02 12:55:20;;;;;;;3.40;1.35;;;4.10;99.90;;;;;;4948097;28;20916;-82
2021/12/02 12:58:06;;;;;;;3.87;1.33;;;4.10;99.90;;;;;;4955761;28;20946;-83
2021/12/02 13:00:42;;;;;;;3.70;1.50;;;4.10;99.90;;;;;;4952980;29;20431;-82
2021/12/02 13:03:12;;;;;;;3.53;1.27;;;4.10;99.90;;;;;;4957516;29;20388;-83
2021/12/02 13:06:12;;;;;;;6.13;1.67;;;4.10;99.90;;;;;;4958239;29;20394;-81
2021/12/02 13:08:49;;;;;;;3.30;1.57;;;4.20;99.90;;;;;;4944337;28;20851;-81
2021/12/02 13:11:16;;;;;;;3.38;1.55;;;4.10;99.90;;;;;;4967365;28;20420;-82
2021/12/02 13:13:45;;;;;;;3.72;1.33;;;4.00;99.90;;;;;;4951046;29;20886;-84
2021/12/02 13:16:16;;;;;;;3.05;1.20;;;3.90;99.90;;;;;;4952197;29;20399;-81
2021/12/02 13:18:47;;;;;;;3.90;1.67;;;4.00;99.90;;;;;;4965951;28;20408;-86
2021/12/02 13:21:32;;;;;;;3.53;1.30;;;4.00;99.90;;;;;;4954615;29;20997;-85
2021/12/02 13:24:08;;;;;;;3.50;1.20;;;4.00;99.90;;;;;;4953494;29;20473;-83
2021/12/02 13:26:39;;;;;;;5.10;1.52;;;3.90;99.90;;;;;;4945531;28;21052;-83
2021/12/02 13:29:07;;;;;;;2.47;1.42;;;3.90;99.90;;;;;;4965967;28;20419;-84
2021/12/02 13:31:34;;;;;;;3.92;1.35;;;3.90;99.90;;;;;;4966596;28;20475;-85